Time;durP1;ratioP1;P1;durP2;ratioP2;P2;SDS_P1;SDS_P2;PMS_P1;PMS_P2;Temp;Humidity;BMP_temperature;BMP_pressure;BME280_temperature;BME280_humidity;BME280_pressure;Samples;Min_cycle;Max_cycle;Signal;HPM_P1;HPM_P2
2024/01/18 00:00:34;;;;;;;0.30;0.20;;;8.50;99.90;;;;;;5068666;28;20231;-82
2024/01/18 00:03:00;;;;;;;19.20;2.63;;;8.50;99.90;;;;;;5068950;28;20426;-84
2024/01/18 00:05:26;;;;;;;0.30;0.20;;;8.40;99.90;;;;;;5068569;28;20177;-83
2024/01/18 00:07:51;;;;;;;0.30;0.20;;;8.40;99.90;;;;;;5069697;28;20205;-80
2024/01/18 00:10:17;;;;;;;0.30;0.20;;;8.40;99.90;;;;;;5067995;28;20244;-78
2024/01/18 00:12:43;;;;;;;0.30;0.20;;;8.40;99.90;;;;;;5068208;28;20216;-78
2024/01/18 00:15:08;;;;;;;0.30;0.20;;;8.40;99.90;;;;;;5069436;28;20612;-83
2024/01/18 00:17:34;;;;;;;0.30;0.20;;;8.40;99.90;;;;;;5068052;28;20181;-84
2024/01/18 00:20:00;;;;;;;0.30;0.20;;;8.30;99.90;;;;;;5069305;28;20429;-83
2024/01/18 00:22:26;;;;;;;0.30;0.20;;;8.30;99.90;;;;;;5069803;28;20230;-84
2024/01/18 00:24:52;;;;;;;0.30;0.20;;;8.30;99.90;;;;;;5067851;28;20599;-83
2024/01/18 00:27:17;;;;;;;0.30;0.20;;;8.30;99.90;;;;;;5070332;28;20198;-78
2024/01/18 00:29:43;;;;;;;0.30;0.20;;;8.30;99.90;;;;;;5074278;28;20201;-83
2024/01/18 00:32:08;;;;;;;0.30;0.20;;;8.30;99.90;;;;;;5075935;28;20205;-84
2024/01/18 00:34:34;;;;;;;0.30;0.20;;;8.30;99.90;;;;;;5074426;28;20192;-84
2024/01/18 00:36:59;;;;;;;0.30;0.20;;;8.30;99.90;;;;;;5075970;28;20278;-77
2024/01/18 00:39:25;;;;;;;0.30;0.20;;;8.30;99.90;;;;;;5074975;28;20452;-84
2024/01/18 00:41:51;;;;;;;0.30;0.20;;;8.20;99.90;;;;;;5074683;28;20173;-79
2024/01/18 00:44:17;;;;;;;0.30;0.20;;;8.20;99.90;;;;;;5074616;28;20200;-81
2024/01/18 00:46:42;;;;;;;0.30;0.20;;;8.20;99.90;;;;;;5076636;28;20532;-77
2024/01/18 00:49:08;;;;;;;0.30;0.20;;;8.20;99.90;;;;;;5074132;28;20200;-78
2024/01/18 00:51:34;;;;;;;0.30;0.20;;;8.20;99.90;;;;;;5074695;28;20437;-77
2024/01/18 00:54:02;;;;;;;0.30;0.20;;;8.10;99.90;;;;;;5075473;28;20251;-84
2024/01/18 00:56:27;;;;;;;0.30;0.20;;;8.10;99.90;;;;;;5074619;28;20420;-84
2024/01/18 00:58:53;;;;;;;0.30;0.20;;;8.10;99.90;;;;;;5074994;28;20196;-78
2024/01/18 01:01:19;;;;;;;0.30;0.20;;;8.10;99.90;;;;;;5076054;28;20252;-84
2024/01/18 01:03:44;;;;;;;0.30;0.20;;;8.10;99.90;;;;;;5073821;28;20213;-78
2024/01/18 01:06:11;;;;;;;0.30;0.20;;;8.10;99.90;;;;;;5073022;28;20226;-82
2024/01/18 01:08:37;;;;;;;0.30;0.20;;;8.10;99.90;;;;;;5074053;28;20266;-83
2024/01/18 01:11:03;;;;;;;0.30;0.20;;;8.10;99.90;;;;;;5075928;28;20157;-84
2024/01/18 01:13:29;;;;;;;0.30;0.20;;;8.10;99.90;;;;;;5075729;28;20985;-80
2024/01/18 01:15:55;;;;;;;0.30;0.20;;;8.00;99.90;;;;;;5075736;28;20273;-85
2024/01/18 01:18:20;;;;;;;0.30;0.20;;;8.00;99.90;;;;;;5075978;28;20408;-87
2024/01/18 01:20:46;;;;;;;0.30;0.20;;;7.90;99.90;;;;;;5074244;28;20177;-86
2024/01/18 01:23:12;;;;;;;0.30;0.20;;;7.90;99.90;;;;;;5075833;28;20193;-84
2024/01/18 01:25:38;;;;;;;0.30;0.20;;;7.90;99.90;;;;;;5074558;28;20641;-85
2024/01/18 01:28:04;;;;;;;0.30;0.20;;;7.90;99.90;;;;;;5075697;28;20192;-78
2024/01/18 01:30:31;;;;;;;0.30;0.20;;;8.00;99.90;;;;;;5075592;28;20177;-78
2024/01/18 01:32:56;;;;;;;0.30;0.20;;;8.00;99.90;;;;;;5074034;28;20258;-84
2024/01/18 01:35:22;;;;;;;0.30;0.20;;;8.00;99.90;;;;;;5075574;28;20444;-84
2024/01/18 01:37:48;;;;;;;0.30;0.20;;;8.10;99.90;;;;;;5074153;28;20560;-84
2024/01/18 01:40:14;;;;;;;0.30;0.20;;;8.00;99.90;;;;;;5071587;28;20496;-83
2024/01/18 01:42:40;;;;;;;0.30;0.20;;;8.00;99.90;;;;;;5072401;28;20252;-84
2024/01/18 01:45:06;;;;;;;0.30;0.20;;;7.90;99.90;;;;;;5072177;28;20184;-84
2024/01/18 01:47:32;;;;;;;0.30;0.20;;;8.00;99.90;;;;;;5070941;28;20572;-77
2024/01/18 01:49:59;;;;;;;0.30;0.20;;;7.90;99.90;;;;;;5070529;28;20219;-79
2024/01/18 01:52:26;;;;;;;0.30;0.20;;;7.90;99.90;;;;;;5070759;28;20472;-84
2024/01/18 01:54:52;;;;;;;0.30;0.20;;;7.90;99.90;;;;;;5071708;28;20243;-77
2024/01/18 01:57:20;;;;;;;0.30;0.20;;;7.90;99.90;;;;;;5072157;28;20177;-84
2024/01/18 01:59:46;;;;;;;0.30;0.20;;;7.80;99.90;;;;;;5070243;28;20505;-78
2024/01/18 02:02:13;;;;;;;0.30;0.20;;;7.90;99.90;;;;;;5072181;28;20174;-78
2024/01/18 02:04:40;;;;;;;0.30;0.20;;;7.90;99.90;;;;;;5071645;28;20258;-78
2024/01/18 02:07:08;;;;;;;0.30;0.20;;;8.00;99.90;;;;;;5070918;28;20181;-85
2024/01/18 02:09:33;;;;;;;0.30;0.20;;;7.90;99.90;;;;;;5069670;28;20233;-77
2024/01/18 02:12:00;;;;;;;0.53;0.50;;;8.00;99.90;;;;;;5071634;28;20212;-77
2024/01/18 02:14:27;;;;;;;0.30;0.20;;;8.00;99.90;;;;;;5071540;28;20197;-84
2024/01/18 02:16:53;;;;;;;0.30;0.20;;;8.00;99.90;;;;;;5070223;28;20184;-77
2024/01/18 02:19:18;;;;;;;0.30;0.20;;;8.00;99.90;;;;;;5071659;28;20197;-84
2024/01/18 02:21:44;;;;;;;0.30;0.20;;;8.10;99.90;;;;;;5071816;28;20188;-78
2024/01/18 02:24:20;;;;;;;0.30;0.20;;;8.00;99.90;;;;;;5070976;28;20207;-77
2024/01/18 02:26:46;;;;;;;0.30;0.20;;;8.10;99.90;;;;;;5071743;28;20191;-84
2024/01/18 02:29:12;;;;;;;0.30;0.20;;;8.10;99.90;;;;;;5071009;28;20204;-79
2024/01/18 02:31:37;;;;;;;0.30;0.20;;;8.10;99.90;;;;;;5071590;28;20188;-84
2024/01/18 02:34:15;;;;;;;0.30;0.20;;;8.20;99.90;;;;;;5069385;28;20209;-78
2024/01/18 02:36:41;;;;;;;0.30;0.20;;;8.20;99.90;;;;;;5071550;28;20177;-83
2024/01/18 02:39:07;;;;;;;0.30;0.20;;;8.30;99.90;;;;;;5071038;28;20556;-83
2024/01/18 02:41:33;;;;;;;0.30;0.20;;;8.30;99.90;;;;;;5071425;28;20173;-84
2024/01/18 02:44:00;;;;;;;0.30;0.20;;;8.30;99.90;;;;;;5071087;28;20224;-78
2024/01/18 02:46:29;;;;;;;0.30;0.20;;;8.30;99.90;;;;;;5070203;28;20187;-78
2024/01/18 02:48:55;;;;;;;0.30;0.20;;;8.30;99.90;;;;;;5070535;28;20604;-78
2024/01/18 02:51:21;;;;;;;0.30;0.20;;;8.40;99.90;;;;;;5070802;28;20223;-78
2024/01/18 02:53:46;;;;;;;0.30;0.20;;;8.40;99.90;;;;;;5070547;28;20200;-77
2024/01/18 02:56:12;;;;;;;0.30;0.20;;;8.40;99.90;;;;;;5070910;28;20180;-78
2024/01/18 02:58:38;;;;;;;0.30;0.20;;;8.50;99.90;;;;;;5070876;28;20197;-77
2024/01/18 03:01:03;;;;;;;0.30;0.20;;;8.50;99.90;;;;;;5069206;28;20188;-83
2024/01/18 03:03:29;;;;;;;0.30;0.20;;;8.50;99.90;;;;;;5070707;28;20317;-78
2024/01/18 03:05:55;;;;;;;0.30;0.20;;;8.50;99.90;;;;;;5070764;28;20549;-78
2024/01/18 03:08:20;;;;;;;0.60;0.60;;;8.50;99.90;;;;;;5070308;28;20185;-83
2024/01/18 03:10:46;;;;;;;0.30;0.20;;;8.50;99.90;;;;;;5069664;28;20225;-83
2024/01/18 03:13:12;;;;;;;0.30;0.20;;;8.60;99.90;;;;;;5069885;28;20228;-77
2024/01/18 03:15:37;;;;;;;2.50;2.30;;;8.50;99.90;;;;;;5070454;28;20209;-78
2024/01/18 03:18:03;;;;;;;0.30;0.20;;;8.60;99.90;;;;;;5068938;28;20203;-84
2024/01/18 03:20:29;;;;;;;0.30;0.20;;;8.50;99.90;;;;;;5070643;28;20566;-81
2024/01/18 03:22:55;;;;;;;0.30;0.20;;;8.60;99.90;;;;;;5068720;28;20449;-84
2024/01/18 03:25:20;;;;;;;0.30;0.20;;;8.70;99.90;;;;;;5070385;28;20358;-84
2024/01/18 03:27:46;;;;;;;0.30;0.30;;;8.70;99.90;;;;;;5070371;28;20524;-84
2024/01/18 03:30:12;;;;;;;0.30;0.20;;;8.70;99.90;;;;;;5069965;28;20181;-78
2024/01/18 03:32:37;;;;;;;0.30;0.20;;;8.80;99.90;;;;;;5070466;28;20270;-84
2024/01/18 03:35:03;;;;;;;0.30;0.20;;;8.80;99.90;;;;;;5069902;28;20222;-82
2024/01/18 03:37:29;;;;;;;0.30;0.20;;;8.80;99.90;;;;;;5069989;28;20178;-84
2024/01/18 03:39:55;;;;;;;0.30;0.20;;;8.80;99.90;;;;;;5068266;28;20264;-78
2024/01/18 03:42:20;;;;;;;0.30;0.20;;;8.80;99.90;;;;;;5070175;28;20173;-84
2024/01/18 03:44:46;;;;;;;0.30;0.20;;;8.90;99.90;;;;;;5069889;28;20184;-82
2024/01/18 03:47:12;;;;;;;0.30;0.20;;;8.90;99.90;;;;;;5070160;28;20181;-78
2024/01/18 03:49:37;;;;;;;0.30;0.20;;;8.90;99.90;;;;;;5068201;28;20338;-83
2024/01/18 03:52:03;;;;;;;0.30;0.20;;;8.90;99.90;;;;;;5069862;28;20301;-77
2024/01/18 03:54:30;;;;;;;0.30;0.20;;;8.80;99.90;;;;;;5068139;28;20697;-84
2024/01/18 03:56:55;;;;;;;0.30;0.20;;;8.80;99.90;;;;;;5067961;28;20930;-77
2024/01/18 03:59:23;;;;;;;0.30;0.20;;;8.80;99.90;;;;;;5069535;28;20208;-79
2024/01/18 04:01:49;;;;;;;0.30;0.30;;;8.90;99.90;;;;;;5069726;28;20198;-84
2024/01/18 04:04:15;;;;;;;0.30;0.20;;;8.90;99.90;;;;;;5067798;28;20196;-77
2024/01/18 04:06:41;;;;;;;0.30;0.20;;;8.90;99.90;;;;;;5068430;28;20184;-80
2024/01/18 04:09:08;;;;;;;0.30;0.20;;;8.90;99.90;;;;;;5068715;28;20237;-84
2024/01/18 04:11:34;;;;;;;0.30;0.20;;;8.90;99.90;;;;;;5068479;28;20635;-78
2024/01/18 04:14:00;;;;;;;0.30;0.20;;;9.00;99.90;;;;;;5067238;28;20689;-84
2024/01/18 04:16:26;;;;;;;0.30;0.20;;;9.00;99.90;;;;;;5069580;28;20385;-82
2024/01/18 04:18:51;;;;;;;0.30;0.30;;;9.00;99.90;;;;;;5069416;28;20274;-84
2024/01/18 04:21:17;;;;;;;0.30;0.20;;;9.00;99.90;;;;;;5069819;28;20173;-83
2024/01/18 04:23:43;;;;;;;1.60;1.30;;;9.10;99.90;;;;;;5069313;28;20220;-78
2024/01/18 04:26:08;;;;;;;0.30;0.20;;;9.00;99.90;;;;;;5069436;28;20177;-78
2024/01/18 04:28:34;;;;;;;0.30;0.20;;;9.10;99.90;;;;;;5067768;28;20296;-78
2024/01/18 04:31:00;;;;;;;0.30;0.20;;;9.20;99.90;;;;;;5069504;28;20637;-83
2024/01/18 04:33:25;;;;;;;0.30;0.30;;;9.20;99.90;;;;;;5069477;28;20741;-84
2024/01/18 04:35:52;;;;;;;0.30;0.20;;;9.20;99.90;;;;;;5068444;28;20642;-78
2024/01/18 04:38:17;;;;;;;0.30;0.20;;;9.30;99.90;;;;;;5068223;28;20536;-84
2024/01/18 04:40:43;;;;;;;0.30;0.30;;;9.30;99.90;;;;;;5069433;28;20183;-80
2024/01/18 04:43:09;;;;;;;0.30;0.20;;;9.30;99.90;;;;;;5069151;28;20197;-78
2024/01/18 04:45:35;;;;;;;0.30;0.20;;;9.30;99.90;;;;;;5067671;28;20201;-78
2024/01/18 04:48:01;;;;;;;0.30;0.20;;;9.30;99.90;;;;;;5067722;28;20803;-86
2024/01/18 04:50:27;;;;;;;0.30;0.20;;;9.30;99.90;;;;;;5067632;28;20489;-80
2024/01/18 04:52:53;;;;;;;0.30;0.20;;;9.30;99.90;;;;;;5067738;28;20474;-86
2024/01/18 04:55:19;;;;;;;0.30;0.20;;;9.30;99.90;;;;;;5071392;28;20546;-80
2024/01/18 04:57:45;;;;;;;0.30;0.20;;;9.30;99.90;;;;;;5088043;28;20203;-85
2024/01/18 05:00:12;;;;;;;0.30;0.20;;;9.30;99.90;;;;;;5089085;28;20310;-78
2024/01/18 05:02:38;;;;;;;0.30;0.20;;;9.30;99.90;;;;;;5088254;28;20180;-78
2024/01/18 05:05:08;;;;;;;0.30;0.20;;;9.40;99.90;;;;;;5087744;28;20263;-83
2024/01/18 05:07:36;;;;;;;0.30;0.20;;;9.40;99.90;;;;;;5088212;28;20176;-78
2024/01/18 05:10:06;;;;;;;0.30;0.20;;;9.40;99.90;;;;;;5088488;28;20231;-78
2024/01/18 05:12:32;;;;;;;0.30;0.20;;;9.40;99.90;;;;;;5089082;28;20554;-78
2024/01/18 05:14:58;;;;;;;0.40;0.30;;;9.40;99.90;;;;;;5090472;28;20192;-84
2024/01/18 05:17:30;;;;;;;0.30;0.30;;;9.50;99.90;;;;;;5091908;28;20843;-84
2024/01/18 05:19:56;;;;;;;0.30;0.20;;;9.40;99.90;;;;;;5091451;28;20184;-78
2024/01/18 05:22:21;;;;;;;0.30;0.20;;;9.40;99.90;;;;;;5091049;28;20183;-84
2024/01/18 05:24:47;;;;;;;0.73;0.73;;;9.50;99.90;;;;;;5092425;28;20247;-83
2024/01/18 05:27:13;;;;;;;0.30;0.20;;;9.50;99.90;;;;;;5086538;28;20215;-86
2024/01/18 05:29:39;;;;;;;0.30;0.20;;;9.50;99.90;;;;;;5086387;28;20262;-79
2024/01/18 05:32:05;;;;;;;0.30;0.20;;;9.60;99.90;;;;;;5088723;28;20472;-79
2024/01/18 05:34:30;;;;;;;0.30;0.20;;;9.60;99.90;;;;;;5088544;28;20226;-86
2024/01/18 05:36:56;;;;;;;0.30;0.20;;;9.60;99.90;;;;;;5089178;28;20176;-79
2024/01/18 05:39:22;;;;;;;0.30;0.30;;;9.60;99.90;;;;;;5089772;28;20208;-84
2024/01/18 05:41:47;;;;;;;0.30;0.20;;;9.70;99.90;;;;;;5089642;28;20172;-79
2024/01/18 05:44:13;;;;;;;0.30;0.20;;;9.70;99.90;;;;;;5088870;28;20238;-85
2024/01/18 05:46:39;;;;;;;0.60;0.30;;;9.70;99.90;;;;;;5092315;28;20663;-85
2024/01/18 05:49:05;;;;;;;0.30;0.20;;;9.80;99.90;;;;;;5091541;28;20196;-85
2024/01/18 05:51:30;;;;;;;0.30;0.20;;;9.80;99.90;;;;;;5074363;28;20226;-79
2024/01/18 05:53:56;;;;;;;0.30;0.20;;;9.80;99.90;;;;;;5088558;28;20269;-79
2024/01/18 05:56:22;;;;;;;0.30;0.20;;;9.80;99.90;;;;;;5097127;28;20666;-79
2024/01/18 05:58:48;;;;;;;0.30;0.20;;;9.80;99.90;;;;;;5069650;28;20205;-85
2024/01/18 06:01:14;;;;;;;0.30;0.20;;;9.80;99.90;;;;;;5077154;28;20657;-86
2024/01/18 06:03:39;;;;;;;0.30;0.20;;;9.80;99.90;;;;;;5091357;28;20232;-79
2024/01/18 06:06:05;;;;;;;0.30;0.20;;;9.80;99.90;;;;;;5089805;28;20180;-79
2024/01/18 06:08:31;;;;;;;0.30;0.20;;;9.80;99.90;;;;;;5088984;28;20193;-85
2024/01/18 06:10:57;;;;;;;0.30;0.20;;;9.80;99.90;;;;;;5091220;28;20391;-85
2024/01/18 06:13:23;;;;;;;2.50;2.40;;;9.90;99.90;;;;;;5083974;28;20259;-85
2024/01/18 06:15:50;;;;;;;0.30;0.20;;;9.90;99.90;;;;;;5089519;28;20184;-79
2024/01/18 06:18:15;;;;;;;0.30;0.20;;;9.90;99.90;;;;;;5088170;28;20196;-79
2024/01/18 06:20:41;;;;;;;1.17;1.17;;;9.90;99.90;;;;;;5091281;28;20169;-84
2024/01/18 06:23:07;;;;;;;0.30;0.20;;;9.90;99.90;;;;;;5089792;28;20795;-85
2024/01/18 06:25:32;;;;;;;0.30;0.20;;;10.10;99.90;;;;;;5087685;28;20422;-86
2024/01/18 06:27:58;;;;;;;0.70;0.67;;;10.10;99.90;;;;;;5087416;28;20261;-86
2024/01/18 06:30:24;;;;;;;0.30;0.20;;;10.10;99.90;;;;;;5090124;28;20292;-79
2024/01/18 06:32:50;;;;;;;0.30;0.20;;;10.10;99.90;;;;;;5090204;28;20567;-79
2024/01/18 06:35:16;;;;;;;0.30;0.20;;;10.10;99.90;;;;;;5088535;28;21045;-79
2024/01/18 06:37:42;;;;;;;0.30;0.30;;;10.10;99.90;;;;;;5088041;28;20539;-85
2024/01/18 06:40:09;;;;;;;0.30;0.20;;;10.10;99.90;;;;;;5085968;28;20189;-79
2024/01/18 06:42:35;;;;;;;0.30;0.20;;;10.20;99.90;;;;;;5071581;28;20191;-79
2024/01/18 06:45:02;;;;;;;0.30;0.20;;;10.20;99.90;;;;;;5089855;28;20177;-79
2024/01/18 06:47:29;;;;;;;0.30;0.20;;;10.20;99.90;;;;;;5085797;28;20203;-84
2024/01/18 06:49:54;;;;;;;0.30;0.20;;;10.30;99.90;;;;;;5082696;28;20207;-79
2024/01/18 06:52:20;;;;;;;0.30;0.20;;;10.30;99.90;;;;;;5089648;28;20598;-79
2024/01/18 06:54:46;;;;;;;0.97;0.97;;;10.30;99.90;;;;;;5088969;28;20318;-79
2024/01/18 06:57:12;;;;;;;0.30;0.20;;;10.30;99.90;;;;;;5086732;28;20428;-79
2024/01/18 06:59:46;;;;;;;0.40;0.40;;;10.30;99.90;;;;;;5088170;28;20200;-85
2024/01/18 07:02:12;;;;;;;0.30;0.20;;;10.30;99.90;;;;;;5087776;28;20241;-85
2024/01/18 07:04:39;;;;;;;2.47;2.38;;;10.40;99.90;;;;;;5084761;28;20196;-86
2024/01/18 07:07:06;;;;;;;10.32;9.95;;;10.40;99.90;;;;;;5080953;28;20184;-79
2024/01/18 07:09:32;;;;;;;0.30;0.20;;;10.30;99.90;;;;;;5076501;28;20229;-79
2024/01/18 07:11:58;;;;;;;0.53;0.53;;;10.30;99.90;;;;;;5077585;28;20214;-85
2024/01/18 07:14:24;;;;;;;0.30;0.20;;;10.30;99.90;;;;;;5080871;28;20804;-78
2024/01/18 07:16:49;;;;;;;0.30;0.20;;;10.30;99.90;;;;;;5086496;28;20436;-85
2024/01/18 07:19:15;;;;;;;0.30;0.20;;;10.20;99.90;;;;;;5085964;28;20268;-86
2024/01/18 07:21:41;;;;;;;0.40;0.30;;;10.20;99.90;;;;;;5080641;28;20266;-79
2024/01/18 07:24:07;;;;;;;0.40;0.40;;;10.20;99.90;;;;;;5083494;28;20215;-86
2024/01/18 07:26:32;;;;;;;0.30;0.20;;;10.20;99.90;;;;;;5082930;28;20213;-86
2024/01/18 07:28:58;;;;;;;2.10;2.00;;;10.30;99.90;;;;;;5076442;28;20593;-79
2024/01/18 07:31:23;;;;;;;0.30;0.20;;;10.30;99.90;;;;;;5081965;28;20206;-83
2024/01/18 07:33:52;;;;;;;0.30;0.20;;;10.40;99.90;;;;;;5082575;28;20308;-79
2024/01/18 07:36:18;;;;;;;0.30;0.20;;;10.40;99.90;;;;;;5083589;28;20229;-80
2024/01/18 07:38:43;;;;;;;0.30;0.20;;;10.40;99.90;;;;;;5081997;28;20437;-80
2024/01/18 07:41:09;;;;;;;0.30;0.20;;;10.40;99.90;;;;;;5079684;28;20170;-85
2024/01/18 07:43:35;;;;;;;0.30;0.20;;;10.40;99.90;;;;;;5080403;28;21174;-80
2024/01/18 07:46:02;;;;;;;0.30;0.20;;;10.40;99.90;;;;;;5079253;28;20428;-85
2024/01/18 07:48:29;;;;;;;3.83;3.53;;;10.40;99.90;;;;;;5076117;28;20460;-86
2024/01/18 07:50:55;;;;;;;0.30;0.20;;;10.40;99.90;;;;;;5075798;28;20272;-86
2024/01/18 07:53:21;;;;;;;0.30;0.20;;;10.50;99.90;;;;;;5079672;28;20322;-80
2024/01/18 07:55:47;;;;;;;0.40;0.37;;;10.50;99.90;;;;;;5093271;28;20185;-81
2024/01/18 07:58:13;;;;;;;0.30;0.20;;;10.60;99.90;;;;;;5081637;28;22004;-80
2024/01/18 08:00:39;;;;;;;0.30;0.20;;;10.70;99.90;;;;;;5081818;28;20189;-85
2024/01/18 08:03:05;;;;;;;0.30;0.20;;;10.70;99.90;;;;;;5080973;28;20283;-86
2024/01/18 08:05:30;;;;;;;0.50;0.50;;;10.80;99.90;;;;;;5081094;28;20261;-80
2024/01/18 08:07:56;;;;;;;1.43;1.43;;;10.90;99.90;;;;;;5077408;28;20208;-87
2024/01/18 08:10:23;;;;;;;0.30;0.30;;;11.00;99.90;;;;;;5077566;28;20551;-81
2024/01/18 08:12:49;;;;;;;0.30;0.20;;;11.30;99.90;;;;;;5077102;28;20219;-87
2024/01/18 08:15:15;;;;;;;1.07;1.03;;;11.60;99.90;;;;;;5080454;28;20787;-80
2024/01/18 08:17:42;;;;;;;0.40;0.30;;;11.80;99.90;;;;;;5078307;28;20188;-87
2024/01/18 08:20:12;;;;;;;0.30;0.30;;;12.10;99.90;;;;;;5070914;28;20192;-80
2024/01/18 08:22:42;;;;;;;0.30;0.20;;;12.40;99.90;;;;;;5081204;28;20671;-80
2024/01/18 08:25:10;;;;;;;0.30;0.20;;;12.60;99.90;;;;;;5079964;28;21860;-80
2024/01/18 08:27:39;;;;;;;0.30;0.20;;;12.80;99.90;;;;;;5077882;28;20523;-87
2024/01/18 08:30:06;;;;;;;0.30;0.20;;;13.00;99.90;;;;;;5070701;28;21787;-81
2024/01/18 08:32:34;;;;;;;0.30;0.20;;;13.30;99.90;;;;;;5079858;28;20473;-87
2024/01/18 08:35:01;;;;;;;0.30;0.20;;;13.50;99.90;;;;;;5076608;28;20501;-86
2024/01/18 08:37:27;;;;;;;0.40;0.40;;;13.50;99.90;;;;;;5074770;28;20468;-81
2024/01/18 08:39:52;;;;;;;0.30;0.20;;;13.40;99.90;;;;;;5078742;28;20494;-87
2024/01/18 08:42:18;;;;;;;0.30;0.30;;;13.30;99.90;;;;;;5077643;28;20431;-80
2024/01/18 08:44:45;;;;;;;0.40;0.20;;;13.10;99.90;;;;;;5080991;28;20207;-81
2024/01/18 08:47:14;;;;;;;0.30;0.20;;;13.00;99.90;;;;;;5081012;28;20584;-81
2024/01/18 08:49:40;;;;;;;0.37;0.33;;;13.00;99.90;;;;;;5086157;28;20440;-80
2024/01/18 08:52:07;;;;;;;0.30;0.20;;;13.00;99.90;;;;;;5080104;28;20778;-87
2024/01/18 08:54:33;;;;;;;0.30;0.30;;;13.00;99.90;;;;;;5083294;28;20532;-80
2024/01/18 08:56:58;;;;;;;0.80;0.80;;;13.10;99.90;;;;;;5098990;27;20527;-86
2024/01/18 08:59:24;;;;;;;1.90;1.80;;;13.20;99.90;;;;;;5084466;28;20627;-88
2024/01/18 09:01:50;;;;;;;0.73;0.73;;;13.30;99.90;;;;;;5078782;28;20185;-87
2024/01/18 09:04:16;;;;;;;0.30;0.20;;;13.20;99.90;;;;;;5076810;28;20213;-80
2024/01/18 09:06:43;;;;;;;0.30;0.20;;;13.30;99.90;;;;;;5080461;28;20767;-86
2024/01/18 09:09:13;;;;;;;0.30;0.20;;;13.30;99.90;;;;;;5080143;28;20529;-86
2024/01/18 09:11:39;;;;;;;0.30;0.30;;;13.30;99.90;;;;;;5082349;28;20921;-87
2024/01/18 09:14:05;;;;;;;0.40;0.30;;;13.30;99.90;;;;;;5077873;28;20627;-87
2024/01/18 09:16:31;;;;;;;0.30;0.20;;;13.40;99.90;;;;;;5079860;28;20428;-86
2024/01/18 09:18:58;;;;;;;0.40;0.40;;;13.50;99.90;;;;;;5080231;28;20440;-86
2024/01/18 09:21:24;;;;;;;0.67;0.67;;;13.50;99.90;;;;;;5081355;28;21008;-87
2024/01/18 09:23:50;;;;;;;0.30;0.20;;;13.50;99.90;;;;;;5081311;28;20445;-87
2024/01/18 09:26:16;;;;;;;0.30;0.20;;;13.50;99.90;;;;;;5081924;28;20698;-81
2024/01/18 09:28:42;;;;;;;0.40;0.40;;;13.50;99.90;;;;;;5073398;28;20489;-87
2024/01/18 09:31:09;;;;;;;0.30;0.20;;;13.60;99.90;;;;;;5079877;28;20405;-81
2024/01/18 09:33:37;;;;;;;0.43;0.40;;;13.50;99.90;;;;;;5076885;28;20510;-86
2024/01/18 09:36:04;;;;;;;1.97;1.90;;;13.50;99.90;;;;;;5083922;28;20963;-80
2024/01/18 09:38:30;;;;;;;1.07;1.07;;;13.50;99.90;;;;;;5075101;28;20836;-80
2024/01/18 09:41:08;;;;;;;0.37;0.27;;;13.50;99.90;;;;;;5078802;28;20418;-80
2024/01/18 09:43:38;;;;;;;0.30;0.20;;;13.40;99.90;;;;;;5074950;28;20768;-80
2024/01/18 09:46:06;;;;;;;0.30;0.20;;;13.40;99.90;;;;;;5076294;28;20424;-80
2024/01/18 09:48:33;;;;;;;0.30;0.20;;;13.40;99.90;;;;;;5066895;28;20860;-86
2024/01/18 09:51:00;;;;;;;0.30;0.20;;;13.30;99.90;;;;;;5072275;28;20884;-80
2024/01/18 09:53:27;;;;;;;0.30;0.20;;;13.40;99.90;;;;;;5071904;28;20645;-86
2024/01/18 09:55:53;;;;;;;0.30;0.20;;;13.40;99.90;;;;;;5078006;28;20433;-80
2024/01/18 09:58:19;;;;;;;0.30;0.20;;;13.50;99.90;;;;;;5070437;28;20685;-80
2024/01/18 10:00:57;;;;;;;0.57;0.57;;;13.50;99.90;;;;;;5075433;28;20402;-86
2024/01/18 10:03:23;;;;;;;0.30;0.30;;;13.50;99.90;;;;;;5077938;28;20456;-86
2024/01/18 10:05:49;;;;;;;0.30;0.20;;;13.60;99.90;;;;;;5080950;28;20474;-80
2024/01/18 10:08:15;;;;;;;0.30;0.20;;;13.70;99.90;;;;;;5083765;28;20981;-80
2024/01/18 10:10:42;;;;;;;0.30;0.20;;;13.80;99.90;;;;;;5083140;28;20477;-80
2024/01/18 10:13:13;;;;;;;0.30;0.20;;;13.90;99.90;;;;;;5080410;28;20480;-80
2024/01/18 10:15:40;;;;;;;0.30;0.30;;;14.00;99.90;;;;;;5081800;28;20784;-80
2024/01/18 10:18:06;;;;;;;0.40;0.30;;;14.10;99.90;;;;;;5081821;28;20524;-80
2024/01/18 10:20:33;;;;;;;1.00;0.97;;;14.20;99.90;;;;;;5083426;28;21006;-80
2024/01/18 10:22:59;;;;;;;1.77;1.67;;;14.30;99.90;;;;;;5084507;28;20450;-80
2024/01/18 10:25:29;;;;;;;0.57;0.57;;;14.40;99.90;;;;;;5082647;28;20528;-80
2024/01/18 10:27:56;;;;;;;0.30;0.20;;;14.50;99.90;;;;;;5082702;28;20483;-86
2024/01/18 10:30:23;;;;;;;0.30;0.20;;;14.60;99.90;;;;;;5084141;28;20511;-80
2024/01/18 10:32:50;;;;;;;0.30;0.20;;;14.60;99.90;;;;;;5085173;28;21043;-80
2024/01/18 10:35:24;;;;;;;0.30;0.20;;;14.70;99.90;;;;;;5083994;28;20421;-80
2024/01/18 10:38:09;;;;;;;0.40;0.40;;;14.80;99.90;;;;;;5083044;28;20487;-80
2024/01/18 10:40:36;;;;;;;0.30;0.20;;;14.90;99.90;;;;;;5078445;28;20472;-86
2024/01/18 10:43:03;;;;;;;0.30;0.30;;;15.00;99.90;;;;;;5082195;28;20484;-85
2024/01/18 10:45:31;;;;;;;0.40;0.30;;;15.00;99.90;;;;;;5079600;28;20953;-85
2024/01/18 10:47:57;;;;;;;0.40;0.30;;;15.00;99.90;;;;;;5083995;28;20460;-86
2024/01/18 10:50:24;;;;;;;0.30;0.20;;;15.00;99.90;;;;;;5079759;28;20421;-85
2024/01/18 10:52:51;;;;;;;0.40;0.30;;;15.10;99.90;;;;;;5076901;28;20824;-85
2024/01/18 10:55:17;;;;;;;0.40;0.20;;;15.10;99.90;;;;;;5079535;28;20780;-85
2024/01/18 10:57:43;;;;;;;0.30;0.20;;;15.10;99.90;;;;;;5078684;28;20502;-86
2024/01/18 11:00:15;;;;;;;0.73;0.73;;;15.20;99.90;;;;;;5071815;28;20185;-79
2024/01/18 11:02:43;;;;;;;0.30;0.20;;;15.20;99.90;;;;;;5074671;28;20564;-85
2024/01/18 11:05:10;;;;;;;0.97;0.83;;;15.20;99.90;;;;;;5074769;28;20812;-84
2024/01/18 11:07:40;;;;;;;1.63;1.53;;;15.20;99.90;;;;;;5070568;28;20741;-80
2024/01/18 11:10:11;;;;;;;0.30;0.20;;;15.30;99.90;;;;;;5073265;28;21052;-80
2024/01/18 11:12:49;;;;;;;0.40;0.40;;;15.30;99.90;;;;;;5075316;28;20999;-86
2024/01/18 11:15:16;;;;;;;0.80;0.80;;;15.40;99.90;;;;;;5075307;28;20690;-80
2024/01/18 11:17:54;;;;;;;1.47;1.37;;;15.50;99.90;;;;;;5077004;28;20461;-80
2024/01/18 11:20:20;;;;;;;1.17;1.07;;;15.50;99.90;;;;;;5071725;28;20514;-85
2024/01/18 11:22:47;;;;;;;0.30;0.30;;;15.60;99.90;;;;;;5075760;28;20641;-80
2024/01/18 11:25:20;;;;;;;2.07;1.47;;;15.60;99.90;;;;;;5078227;28;20440;-80
2024/01/18 11:27:46;;;;;;;0.60;0.57;;;15.60;99.90;;;;;;5075839;28;20441;-85
2024/01/18 11:30:35;;;;;;;10.03;1.60;;;15.60;99.90;;;;;;5089144;28;20426;-85
2024/01/18 11:33:01;;;;;;;0.30;0.20;;;15.60;99.90;;;;;;5075198;28;20235;-86
2024/01/18 11:35:27;;;;;;;0.30;0.20;;;15.60;99.90;;;;;;5077299;28;20510;-80
2024/01/18 11:38:20;;;;;;;0.30;0.30;;;15.60;99.90;;;;;;5076264;28;20453;-85
2024/01/18 11:40:46;;;;;;;0.30;0.30;;;15.60;99.90;;;;;;5074589;28;20775;-80
2024/01/18 11:43:13;;;;;;;0.30;0.20;;;15.60;99.90;;;;;;5079735;28;20749;-85
2024/01/18 11:45:38;;;;;;;0.60;0.60;;;15.70;99.90;;;;;;5077500;28;20468;-85
2024/01/18 11:48:04;;;;;;;0.30;0.20;;;15.70;99.90;;;;;;5075427;28;20496;-80
2024/01/18 11:50:30;;;;;;;0.83;0.83;;;15.70;99.90;;;;;;5074608;28;20271;-86
2024/01/18 11:52:57;;;;;;;0.30;0.20;;;15.80;99.90;;;;;;5078781;28;20474;-80
2024/01/18 11:55:28;;;;;;;0.40;0.30;;;15.80;99.90;;;;;;5079389;28;20810;-80
2024/01/18 11:57:54;;;;;;;0.30;0.20;;;15.80;99.90;;;;;;5074403;28;20794;-80
2024/01/18 12:00:19;;;;;;;0.63;0.57;;;15.70;99.90;;;;;;5078147;28;20448;-85
2024/01/18 12:02:45;;;;;;;0.30;0.30;;;15.60;99.90;;;;;;5074824;28;20227;-86
2024/01/18 12:05:11;;;;;;;3.90;0.83;;;15.60;99.90;;;;;;5078822;28;20671;-81
2024/01/18 12:07:38;;;;;;;0.30;0.20;;;15.40;99.90;;;;;;5076232;28;20428;-79
2024/01/18 12:10:06;;;;;;;0.30;0.20;;;15.30;99.90;;;;;;5075060;28;20794;-84
2024/01/18 12:12:32;;;;;;;0.30;0.20;;;15.10;99.90;;;;;;5076550;28;20457;-85
2024/01/18 12:14:59;;;;;;;0.30;0.20;;;15.00;99.90;;;;;;5078245;28;20420;-79
2024/01/18 12:17:28;;;;;;;1.27;1.20;;;15.10;99.90;;;;;;5080541;28;20469;-81
2024/01/18 12:19:54;;;;;;;0.30;0.20;;;15.10;99.90;;;;;;5075738;28;20495;-79
2024/01/18 12:22:20;;;;;;;0.30;0.20;;;15.10;99.90;;;;;;5077044;28;20925;-85
2024/01/18 12:24:49;;;;;;;0.30;0.20;;;15.00;99.90;;;;;;5078897;28;20196;-84
2024/01/18 12:27:16;;;;;;;0.30;0.20;;;15.00;99.90;;;;;;5075161;28;20433;-79
2024/01/18 12:29:43;;;;;;;4.40;3.03;;;15.00;99.90;;;;;;5076804;28;20510;-79
2024/01/18 12:32:09;;;;;;;0.30;0.20;;;15.00;99.90;;;;;;5074876;28;20489;-80
2024/01/18 12:34:35;;;;;;;0.70;0.70;;;15.00;99.90;;;;;;5096184;28;20480;-85
2024/01/18 12:37:02;;;;;;;0.30;0.20;;;15.00;99.90;;;;;;5080266;28;20421;-79
2024/01/18 12:39:30;;;;;;;0.30;0.20;;;15.00;99.90;;;;;;5074032;28;20797;-85
2024/01/18 12:41:57;;;;;;;0.30;0.30;;;15.00;99.90;;;;;;5080810;28;20926;-81
2024/01/18 12:44:23;;;;;;;0.30;0.30;;;15.00;99.90;;;;;;5069364;28;20993;-79
2024/01/18 12:46:54;;;;;;;1.50;1.30;;;15.00;99.90;;;;;;5073975;28;20475;-85
2024/01/18 12:49:22;;;;;;;2.57;2.50;;;15.00;99.90;;;;;;5074594;28;20458;-85